Hancock, West Virginia
Current Conditions -  °F | °C
As of 6:53 PM on Monday 20 Oct 2014 (Local Time) from KMRB Reporting Station
Overcast Overcast  
Wind Chill: 57°   Ceiling: 9000
Heat Index: 57°   Visibility: 10mi
Dew Point: 44°   Wind: 5mph
Humidity: 62%   Direction: 180°S
Pressure: 29.94"   Gusts: NA
Location:  39.5563°N, 78.2182°W
Report Text: KMRB 202253Z 18004KT 10SM FEW055 BKN090 OVC110 14/07 A2994 RMK AO2 RAB2156E15 SLP140 P0000 T01390067
Loading
Personal Weather Stations






























Interactive Weather Map
Tropical Storm Tracking
New forecast layout! Learn more

10-Day Weather Forecast

Advertisements
Track Severe Weather on mobile